• Join FlightAware (Why Join?)
  • Login
  • US Flag 
07:07PM EDT


 

Airport Tracker/Info


-or-


 

Live Flight TrackerFlight Track Log ✈ ASQ5685 ✈ 02-Oct-2013 ✈ KATL - KIAD

Flight Track Log - Related Links

Times and Time Zones

All times are in EDT time to prevent confusion due to time zone crossing. See the ASQ5685 flight status page for this flight to view local times or setup timezone preferences in your user account.

Time Position Orientation Groundspeed Altitude Reporting Facility
EDT Latitude Longitude Course Direction KTS MPH feet Rate Location/Type
09:47AM 33.6306 -84.4778 68° East 393 452 2,500  Level Atlanta Center
09:48AM 33.6033 -84.5475 245° Southwest 278 320 4,100 2,040 Climbing Atlanta Center
09:49AM 33.8642 -84.1575 48° Northeast  Level Estimated
09:49AM 33.5383 -84.5872 207° Southwest 246 283 6,600  Level Atlanta Center
09:50AM 33.9399 -84.0671 53° Northeast  Level Estimated
09:50AM 33.4614 -84.5567 162° South 288 331 9,100  Level Atlanta Center
09:51AM 33.9799 -83.9480 68° East  Level FlightAware Approximate
09:51AM 33.4533 -84.4572 96° East 287 330 10,800  Level Atlanta Center
09:52AM 34.0198 -83.8287 68° East  Level FlightAware Approximate
09:52AM 33.4536 -84.3475 90° East 307 353 11,800  Level Atlanta Center
09:53AM 33.4997 -84.2456 62° Northeast 338 389 13,100 1,320 Climbing Atlanta Center
09:54AM 33.5897 -84.1883 28° Northeast 334 384 14,500 1,320 Climbing Atlanta Center
09:55AM 33.6794 -84.1311 28° Northeast 352 405 15,800 1,080 Climbing Atlanta Center
09:56AM 33.7608 -84.0489 40° Northeast 368 423 16,700 840 Climbing Atlanta Center
09:57AM 33.8150 -83.9364 60° Northeast 382 440 17,500 660 Climbing Atlanta Center
09:58AM 33.8733 -83.8236 58° Northeast 398 458 18,100 660 Climbing Atlanta Center
09:59AM 33.9336 -83.7108 57° Northeast 398 458 18,900 780 Climbing Atlanta Center
10:00AM 34.0022 -83.6028 53° Northeast 405 466 19,700 780 Climbing Atlanta Center
10:01AM 34.0686 -83.4947 53° Northeast 405 466 20,500 780 Climbing Atlanta Center
10:02AM 34.1369 -83.3864 53° Northeast 400 460 21,300 840 Climbing Atlanta Center
10:03AM 34.2031 -83.2803 53° Northeast 394 453 22,200 840 Climbing Atlanta Center
10:04AM 34.2711 -83.1717 53° Northeast 394 453 23,000 600 Climbing Atlanta Center
10:05AM 34.3311 -83.0728 54° Northeast 394 453 23,500 540 Climbing Atlanta Center
10:06AM 34.4011 -82.9614 53° Northeast 401 461 24,100 600 Climbing Atlanta Center
10:07AM 34.4689 -82.8494 54° Northeast 412 474 24,700 600 Climbing Atlanta Center
10:08AM 34.5386 -82.7375 53° Northeast 414 476 25,300 600 Climbing Atlanta Center
10:09AM 34.6125 -82.6253 51° Northeast 419 482 25,900 600 Climbing Atlanta Center
10:10AM 34.6864 -82.5053 53° Northeast 414 476 26,600 540 Climbing Atlanta Center
10:11AM 34.7536 -82.3878 55° Northeast 414 476 27,000 180 Climbing Atlanta Center
10:12AM 34.8250 -82.2725 53° Northeast 414 476 27,000  Level Atlanta Center
10:13AM 34.8983 -82.1519 53° Northeast 420 483 27,000  Level Atlanta Center
10:14AM 34.9656 -82.0442 53° Northeast 441 507 27,000  Level Atlanta Center
10:15AM 35.0386 -81.9206 54° Northeast 441 507 27,000  Level Atlanta Center
10:16AM 35.1153 -81.7814 56° Northeast 446 513 27,000  Level Atlanta Center
10:17AM 35.1797 -81.6528 58° Northeast 446 513 27,000  Level Atlanta Center
10:18AM 35.2461 -81.5286 57° Northeast 441 507 27,000  Level Atlanta Center
10:19AM 35.3122 -81.4019 57° Northeast 441 507 27,000  Level Atlanta Center
10:20AM 35.3764 -81.2750 58° Northeast 441 507 27,000  Level Atlanta Center
10:21AM 35.4422 -81.1456 58° Northeast 441 507 27,000  Level Atlanta Center
10:22AM 35.5081 -81.0181 58° Northeast 441 507 27,000  Level Atlanta Center
10:23AM 35.5758 -80.8931 56° Northeast 441 507 27,000  Level Atlanta Center
10:24AM 35.6433 -80.7653 57° Northeast 441 507 27,000  Level Atlanta Center
10:25AM 35.7064 -80.6350 59° Northeast 441 507 27,000  Level Atlanta Center
10:26AM 35.7739 -80.5067 57° Northeast 441 507 27,000  Level Atlanta Center
10:27AM 35.8389 -80.3808 57° Northeast 446 513 27,000  Level Atlanta Center
10:30AM 36.0014 -80.0697 57° Northeast 448 516 27,000  Level Washington Center
10:30AM 36.0686 -79.9425 57° Northeast 436 502 27,000  Level Washington Center
10:32AM 36.1397 -79.8203 54° Northeast 436 502 27,000  Level Washington Center
10:33AM 36.2131 -79.6956 54° Northeast 442 509 27,000  Level Washington Center
10:33AM 36.2958 -79.5867 47° Northeast 437 503 27,000  Level Washington Center
10:35AM 36.3861 -79.5136 33° Northeast 425 489 27,000  Level Washington Center
10:36AM 36.4928 -79.4364 30° Northeast 431 496 27,000  Level Washington Center
10:37AM 36.6019 -79.3514 32° Northeast 431 496 27,000  Level Washington Center
10:38AM 36.6886 -79.2492 43° Northeast 419 482 27,000  Level Washington Center
10:38AM 36.7611 -79.1308 53° Northeast 424 488 27,000 -120 Level Washington Center
10:39AM 36.8356 -79.0072 53° Northeast 424 488 26,800 -480 Descending Washington Center
10:41AM 36.9014 -78.8931 54° Northeast 434 499 26,100 -840 Descending Washington Center
10:42AM 36.9797 -78.7664 52° Northeast 445 512 25,100 -600 Descending Washington Center
10:42AM 37.0478 -78.6392 56° Northeast 452 520 25,000 -60 Descending Washington Center
10:44AM 37.1056 -78.5008 62° Northeast 416 479 25,000 -60 Level Washington Center
10:45AM 37.1564 -78.3803 62° Northeast 397 457 24,900 -720 Descending Washington Center
10:46AM 37.2072 -78.2569 63° Northeast 397 457 23,600 -1,200 Descending Washington Center
10:46AM 37.2597 -78.1467 59° Northeast 382 440 22,600 -840 Descending Washington Center
10:47AM 37.3444 -78.0761 34° Northeast 358 412 22,000 -300 Descending Washington Center
10:49AM 37.4336 -78.0111 30° Northeast 357 411 22,000  Level Washington Center
10:50AM 37.5203 -77.9483 30° Northeast 363 418 22,000  Level Washington Center
10:51AM 37.6092 -77.8778 32° Northeast 363 418 22,000 -600 Level Washington Center
10:52AM 37.6961 -77.8122 31° Northeast 363 418 20,800 -1,500 Descending Washington Center
10:52AM 37.7847 -77.7492 29° Northeast 363 418 19,100 -1,800 Descending Washington Center
10:54AM 37.8694 -77.6831 32° Northeast 363 418 17,300 -1,920 Descending Washington Center
10:55AM 37.9497 -77.6222 31° Northeast 363 418 15,300 -1,920 Descending Washington Center
10:56AM 38.0278 -77.5608 32° Northeast 344 396 13,500 -1,800 Descending Washington Center
10:56AM 38.0975 -77.5125 29° Northeast 320 368 11,800 -1,740 Descending Washington Center
10:58AM 38.1669 -77.4589 31° Northeast 305 351 10,100 -900 Descending Washington Center
10:59AM 38.2367 -77.4158 26° Northeast 286 329 10,000 -60 Descending Washington Center
10:59AM 38.3039 -77.3750 25° Northeast 275 316 10,000 -660 Level Washington Center
11:01AM 38.3747 -77.3714 North 268 308 8,800 -1,740 Descending Washington Center
11:02AM 38.4408 -77.4233 328° Northwest 253 291 6,500 -2,160 Descending Washington Center
11:03AM 38.5153 -77.4544 342° North 253 291 4,500 -1,380 Descending Washington Center
11:04AM 38.5697 -77.4450 North 239 275 3,800 -780 Descending Washington Center
11:04AM 38.6239 -77.4439 North 208 239 3,000 -420 Descending Washington Center
11:06AM 38.6781 -77.4425 North 193 222 3,000  Level Washington Center
11:07AM 38.7303 -77.4411 North 188 216 3,000 -480 Level Washington Center
11:08AM 38.8000 -77.4333 North 180 207 2,000 -480 Descending Potomac TRACON
11:09AM 38.8500 -77.4333 360° North 167 192 2,000 -420 Level Potomac TRACON
11:10AM 38.8833 -77.4333 360° North 142 163 1,200 -840 Descending Potomac TRACON